Long Pond Township, Maine
Current Conditions -  °F | °C
As of 8:03 AM on Friday 24 Oct 2014 (Local Time) from CYSC Reporting Station
Overcast Overcast  
Wind Chill: 37°   Ceiling: 800
Heat Index: 41°   Visibility: 8mi
Dew Point: 41°   Wind: 6mph
Humidity: 100%   Direction: 40°NE
Pressure: 29.82"   Gusts: NA
Location:  45.7142°N, 70.304°W
Report Text: CYSC 241203Z AUTO 04005KT 8SM OVC008 05/05 A2982 RMK SLP104
Loading
Personal Weather Stations






























Interactive Weather Map
Tropical Storm Tracking
New forecast layout! Learn more

10-Day Weather Forecast

Advertisements
Track Severe Weather on mobile